Terminal Aerodrome Forecast
Issued by NWS

Home | Current Version | Previous Version | Text Only | Print | Product List | Glossary On
Versions: 1 2 3 4 5 6 7 8 9 10 11 12 13 14 15 16 17 18 19 20 21 22 23 24 25 26 27 28 29 30 31
000
FTUS43 KDLH 291337 AAB
TAFHIB
TAF AMD
KHIB 291337Z 2914/3012 30010G18KT P6SM VCSH SCT008 OVC025
      TEMPO 2914/2918 5SM -DZ BKN010
     FM292100 29012G22KT P6SM BKN040
     FM300200 30005KT P6SM SCT050=

USA.gov is the U.S. government's official web portal to all federal, state and local government web resources and services.